createdAt,value
2023-03-17T00:02:07.288Z,9.00
2023-03-17T00:04:35.174Z,8.90
2023-03-17T00:07:03.334Z,9.00
2023-03-17T00:09:31.247Z,9.00
2023-03-17T00:11:59.445Z,9.00
2023-03-17T00:14:27.335Z,9.00
2023-03-17T00:16:55.907Z,8.90
2023-03-17T00:19:35.841Z,8.90
2023-03-17T00:22:10.278Z,8.90
2023-03-17T00:24:38.024Z,8.90
2023-03-17T00:27:14.363Z,8.80
2023-03-17T00:29:42.143Z,8.70
2023-03-17T00:32:20.403Z,8.70
2023-03-17T00:34:52.728Z,8.60
2023-03-17T00:37:20.652Z,8.50
2023-03-17T00:39:50.465Z,8.30
2023-03-17T00:42:18.830Z,8.30
2023-03-17T00:44:47.463Z,8.30
2023-03-17T00:47:15.603Z,8.20
2023-03-17T00:49:50.476Z,8.20
2023-03-17T00:52:18.211Z,8.30
2023-03-17T00:54:46.178Z,8.20
2023-03-17T00:57:14.851Z,8.30
2023-03-17T00:59:43.636Z,8.20
2023-03-17T01:02:15.196Z,8.20
2023-03-17T01:04:49.936Z,8.10
2023-03-17T01:07:21.334Z,8.00
2023-03-17T01:09:50.001Z,8.10
2023-03-17T01:12:18.531Z,8.10
2023-03-17T01:14:46.867Z,8.10
2023-03-17T01:17:18.779Z,8.10
2023-03-17T01:19:48.123Z,8.20
2023-03-17T01:22:16.187Z,8.20
2023-03-17T01:24:43.895Z,8.20
2023-03-17T01:27:12.455Z,8.20
2023-03-17T01:29:41.006Z,8.20
2023-03-17T01:32:08.845Z,8.30
2023-03-17T01:34:36.779Z,8.40
2023-03-17T01:37:04.930Z,8.40
2023-03-17T01:39:33.652Z,8.40
2023-03-17T01:42:02.088Z,8.30
2023-03-17T01:44:30.875Z,8.40
2023-03-17T01:47:01.183Z,8.50
2023-03-17T01:49:38.924Z,8.60
2023-03-17T01:52:18.146Z,8.40
2023-03-17T01:55:15.089Z,8.40
2023-03-17T01:57:55.102Z,8.40
2023-03-17T02:00:26.687Z,8.60
2023-03-17T02:02:58.488Z,8.70
2023-03-17T02:05:32.580Z,8.70
2023-03-17T02:08:00.760Z,8.70
2023-03-17T02:10:31.047Z,8.80
2023-03-17T02:13:05.704Z,8.90
2023-03-17T02:15:53.030Z,8.90
2023-03-17T02:18:24.222Z,8.90
2023-03-17T02:20:58.724Z,8.90
2023-03-17T02:23:26.600Z,8.80
2023-03-17T02:25:55.764Z,8.60
2023-03-17T02:28:31.205Z,8.50
2023-03-17T02:30:58.964Z,8.60
2023-03-17T02:33:27.884Z,8.60
2023-03-17T02:35:57.282Z,8.70
2023-03-17T02:38:25.136Z,8.60
2023-03-17T02:40:53.406Z,8.70
2023-03-17T02:43:21.243Z,8.80
2023-03-17T02:45:49.214Z,8.80
2023-03-17T02:48:17.952Z,8.70
2023-03-17T02:50:45.771Z,8.60
2023-03-17T02:53:14.112Z,8.40
2023-03-17T02:55:42.299Z,8.20
2023-03-17T02:58:10.547Z,8.20
2023-03-17T03:00:40.583Z,8.00
2023-03-17T03:03:08.518Z,7.90
2023-03-17T03:05:36.618Z,7.80
2023-03-17T03:08:05.153Z,7.70
2023-03-17T03:10:32.932Z,7.60
2023-03-17T03:13:01.643Z,7.60
2023-03-17T03:15:29.838Z,7.60
2023-03-17T03:17:57.805Z,7.60
2023-03-17T03:20:25.778Z,7.60
2023-03-17T03:22:53.664Z,7.60
2023-03-17T03:25:21.506Z,7.70
2023-03-17T03:27:49.605Z,7.70
2023-03-17T03:30:17.696Z,7.80
2023-03-17T03:32:46.980Z,7.80
2023-03-17T03:35:15.675Z,7.70
2023-03-17T03:37:43.435Z,7.70
2023-03-17T03:40:12.978Z,7.70
2023-03-17T03:42:41.089Z,7.70
2023-03-17T03:45:10.391Z,7.60
2023-03-17T03:47:38.219Z,7.40
2023-03-17T03:50:07.945Z,7.50
2023-03-17T03:52:36.269Z,7.50
2023-03-17T03:55:04.719Z,7.70
2023-03-17T03:57:32.516Z,7.70
2023-03-17T04:00:00.812Z,7.60
2023-03-17T04:02:29.944Z,7.50
2023-03-17T04:04:58.320Z,7.50
2023-03-17T04:07:26.439Z,7.50
2023-03-17T04:09:54.681Z,7.50
2023-03-17T04:12:22.395Z,7.40
2023-03-17T04:14:50.301Z,7.40
2023-03-17T04:17:18.164Z,7.30
2023-03-17T04:19:46.060Z,7.20
2023-03-17T04:22:13.911Z,7.20
2023-03-17T04:24:41.989Z,7.10
2023-03-17T04:27:10.538Z,7.00
2023-03-17T04:29:38.239Z,7.10
2023-03-17T04:32:07.200Z,7.00
2023-03-17T04:34:35.071Z,7.10
2023-03-17T04:37:03.286Z,7.00
2023-03-17T04:39:31.137Z,7.00
2023-03-17T04:41:58.934Z,7.20
2023-03-17T04:44:27.340Z,7.10
2023-03-17T04:46:54.991Z,7.20
2023-03-17T04:49:22.782Z,7.10
2023-03-17T04:51:50.917Z,7.10
2023-03-17T04:54:19.120Z,7.00
2023-03-17T04:56:47.219Z,6.90
2023-03-17T04:59:16.382Z,6.90
2023-03-17T05:01:44.341Z,6.90
2023-03-17T05:04:16.724Z,7.00
2023-03-17T05:06:50.082Z,7.00
2023-03-17T05:09:18.226Z,7.20
2023-03-17T05:11:45.968Z,7.40
2023-03-17T05:14:13.783Z,7.50
2023-03-17T05:16:41.930Z,7.50
2023-03-17T05:19:09.992Z,7.50
2023-03-17T05:21:38.070Z,7.40
2023-03-17T05:24:06.634Z,7.40
2023-03-17T05:26:34.367Z,7.40
2023-03-17T05:29:02.497Z,7.40
2023-03-17T05:31:31.142Z,7.30
2023-03-17T05:33:59.736Z,7.30
2023-03-17T05:36:27.573Z,7.10
2023-03-17T05:38:55.700Z,7.00
2023-03-17T05:41:23.528Z,6.80
2023-03-17T05:43:51.973Z,6.60
2023-03-17T05:46:20.543Z,6.40
2023-03-17T05:48:49.008Z,6.30
2023-03-17T05:51:16.977Z,6.10
2023-03-17T05:53:45.800Z,6.00
2023-03-17T05:56:13.784Z,5.90
2023-03-17T05:58:41.760Z,5.80
2023-03-17T06:01:09.710Z,5.70
2023-03-17T06:03:38.832Z,5.70
2023-03-17T06:06:07.450Z,5.60
2023-03-17T06:08:35.453Z,5.50
2023-03-17T06:11:03.350Z,5.50
2023-03-17T06:13:31.303Z,5.50
2023-03-17T06:15:59.150Z,5.50
2023-03-17T06:18:27.262Z,5.60
2023-03-17T06:20:55.354Z,5.60
2023-03-17T06:23:24.106Z,5.60
2023-03-17T06:25:52.444Z,5.80
2023-03-17T06:28:20.273Z,5.90
2023-03-17T06:30:48.310Z,6.10
2023-03-17T06:33:18.389Z,6.20
2023-03-17T06:35:46.275Z,6.40
2023-03-17T06:38:14.125Z,6.60
2023-03-17T06:40:42.524Z,6.90
2023-03-17T06:43:10.629Z,7.10
2023-03-17T06:45:38.592Z,7.30
2023-03-17T06:48:07.171Z,7.50
2023-03-17T06:50:35.055Z,7.70
2023-03-17T06:53:03.141Z,7.90
2023-03-17T06:55:32.131Z,8.10
2023-03-17T06:58:00.811Z,8.40
2023-03-17T07:00:30.474Z,8.60
2023-03-17T07:02:58.881Z,8.80
2023-03-17T07:05:26.993Z,9.00
2023-03-17T07:07:54.827Z,9.30
2023-03-17T07:10:23.485Z,9.80
2023-03-17T07:12:51.311Z,10.50
2023-03-17T07:15:19.142Z,11.10
2023-03-17T07:17:49.847Z,12.00
2023-03-17T07:20:20.161Z,13.00
2023-03-17T07:22:48.064Z,13.60
2023-03-17T07:25:16.316Z,13.90
2023-03-17T07:27:44.474Z,14.10
2023-03-17T07:30:19.201Z,14.80
2023-03-17T07:32:48.675Z,15.20
2023-03-17T07:35:17.753Z,15.50
2023-03-17T07:37:45.689Z,15.90
2023-03-17T07:40:13.896Z,16.00
2023-03-17T07:42:42.569Z,16.10
2023-03-17T07:45:11.599Z,16.10
2023-03-17T07:47:40.212Z,16.30
2023-03-17T07:50:09.821Z,16.60
2023-03-17T07:52:38.162Z,17.20
2023-03-17T07:55:12.990Z,16.90
2023-03-17T07:57:41.793Z,16.20
2023-03-17T08:00:13.792Z,16.60
2023-03-17T08:02:41.947Z,16.30
2023-03-17T08:05:11.512Z,15.80
2023-03-17T08:07:39.652Z,15.40
2023-03-17T08:10:13.148Z,15.50
2023-03-17T08:12:42.710Z,15.00
2023-03-17T08:15:12.346Z,15.20
2023-03-17T08:17:40.886Z,15.40
2023-03-17T08:20:10.142Z,15.40
2023-03-17T08:22:38.002Z,15.70
2023-03-17T08:25:06.601Z,15.70
2023-03-17T08:27:34.660Z,15.60
2023-03-17T08:30:06.042Z,15.90
2023-03-17T08:32:34.321Z,15.80
2023-03-17T08:35:02.697Z,15.50
2023-03-17T08:37:30.773Z,15.60
2023-03-17T08:39:59.432Z,15.70
2023-03-17T08:42:27.632Z,15.50
2023-03-17T08:44:55.508Z,15.60
2023-03-17T08:47:24.698Z,15.70
2023-03-17T08:49:52.430Z,15.50
2023-03-17T08:52:20.663Z,15.70
2023-03-17T08:54:51.233Z,15.20
2023-03-17T08:57:19.766Z,15.20
2023-03-17T08:59:48.273Z,15.20
2023-03-17T09:02:16.682Z,15.40
2023-03-17T09:04:44.571Z,15.60
2023-03-17T09:07:13.275Z,16.20
2023-03-17T09:09:41.408Z,16.00
2023-03-17T09:12:11.313Z,15.70
2023-03-17T09:14:44.387Z,16.00
2023-03-17T09:17:14.630Z,16.40
2023-03-17T09:19:43.693Z,16.50
2023-03-17T09:22:21.251Z,17.00
2023-03-17T09:24:49.544Z,16.90
2023-03-17T09:27:17.305Z,16.90
2023-03-17T09:29:45.293Z,17.00
2023-03-17T09:32:13.299Z,17.10
2023-03-17T09:34:42.062Z,17.30
2023-03-17T09:37:10.048Z,17.60
2023-03-17T09:39:38.161Z,17.80
2023-03-17T09:42:45.317Z,17.70
2023-03-17T09:45:35.597Z,17.30
2023-03-17T09:48:59.387Z,16.70
2023-03-17T09:51:32.470Z,16.70
2023-03-17T09:54:19.143Z,16.70
2023-03-17T09:57:29.798Z,16.60
2023-03-17T10:00:29.507Z,16.60
2023-03-17T10:03:00.105Z,16.80
2023-03-17T10:05:36.569Z,16.60
2023-03-17T10:08:31.741Z,16.60
2023-03-17T10:11:49.201Z,17.00
2023-03-17T10:14:45.784Z,16.80
2023-03-17T10:17:40.570Z,16.60
2023-03-17T10:20:44.602Z,16.20
2023-03-17T10:23:24.385Z,16.30
2023-03-17T10:25:53.792Z,16.40
2023-03-17T10:28:36.751Z,16.70
2023-03-17T10:31:34.972Z,17.10
2023-03-17T10:34:18.176Z,16.90
2023-03-17T10:36:56.561Z,16.90
2023-03-17T10:39:25.788Z,17.00
2023-03-17T10:42:15.692Z,17.00
2023-03-17T10:45:25.267Z,17.20
2023-03-17T10:47:58.573Z,17.10
2023-03-17T10:50:41.276Z,17.00
2023-03-17T10:53:28.568Z,16.80
2023-03-17T10:56:22.693Z,16.90
2023-03-17T10:58:55.698Z,16.80
2023-03-17T11:01:44.196Z,16.60
2023-03-17T11:04:39.869Z,16.60
2023-03-17T11:07:19.076Z,16.70
2023-03-17T11:09:56.943Z,16.70
2023-03-17T11:12:41.998Z,16.90
2023-03-17T11:15:18.916Z,17.00
2023-03-17T11:18:21.765Z,17.30
2023-03-17T11:21:11.071Z,17.20
2023-03-17T11:24:09.487Z,17.10
2023-03-17T11:27:05.298Z,17.20
2023-03-17T11:30:28.039Z,17.20
2023-03-17T11:33:35.870Z,17.30
2023-03-17T11:37:24.207Z,17.40
2023-03-17T11:41:27.382Z,17.50
2023-03-17T11:44:38.704Z,17.40
2023-03-17T11:48:06.821Z,17.60
2023-03-17T11:51:08.806Z,17.70
2023-03-17T11:53:57.610Z,17.80
2023-03-17T11:57:05.948Z,18.10
2023-03-17T12:00:07.273Z,18.30
2023-03-17T12:03:16.160Z,18.40
2023-03-17T12:05:58.296Z,18.40
2023-03-17T12:09:07.975Z,18.90
2023-03-17T12:11:44.785Z,19.20
2023-03-17T12:15:00.545Z,19.10
2023-03-17T12:17:47.910Z,19.10
2023-03-17T12:21:12.147Z,18.90
2023-03-17T12:24:13.166Z,18.80
2023-03-17T12:27:20.083Z,18.60
2023-03-17T12:30:03.076Z,18.40
2023-03-17T12:33:06.832Z,18.40
2023-03-17T12:35:39.173Z,18.60
2023-03-17T12:38:47.248Z,18.60
2023-03-17T12:42:00.542Z,18.70
2023-03-17T12:45:17.606Z,18.50
2023-03-17T12:48:53.188Z,18.50
2023-03-17T12:51:55.060Z,18.70
2023-03-17T12:54:35.907Z,19.00
2023-03-17T12:57:22.803Z,18.90
2023-03-17T13:00:29.746Z,18.70
2023-03-17T13:03:34.021Z,18.70
2023-03-17T13:06:21.019Z,18.50
2023-03-17T13:08:53.403Z,18.40
2023-03-17T13:11:38.395Z,18.90
2023-03-17T13:14:42.896Z,18.90
2023-03-17T13:17:24.653Z,18.80
2023-03-17T13:20:18.417Z,18.80
2023-03-17T13:23:35.327Z,19.00
2023-03-17T13:26:04.711Z,19.30
2023-03-17T13:28:35.594Z,19.40
2023-03-17T13:31:31.983Z,19.40
2023-03-17T13:34:20.951Z,19.20
2023-03-17T13:37:28.309Z,19.00
2023-03-17T13:40:39.031Z,18.70
2023-03-17T13:44:19.606Z,18.70
2023-03-17T13:46:49.203Z,18.90
2023-03-17T13:49:32.351Z,18.80
2023-03-17T13:52:17.668Z,18.70
2023-03-17T13:55:06.951Z,18.60
2023-03-17T13:57:40.185Z,18.80
2023-03-17T14:00:24.546Z,18.70
2023-03-17T14:03:23.292Z,18.50
2023-03-17T14:05:54.355Z,18.50
2023-03-17T14:08:37.749Z,18.40
2023-03-17T14:11:33.913Z,18.40
2023-03-17T14:14:53.370Z,18.40
2023-03-17T14:17:34.968Z,18.40
2023-03-17T14:20:27.921Z,18.40
2023-03-17T14:23:06.780Z,18.70
2023-03-17T14:25:40.112Z,18.50
2023-03-17T14:28:17.883Z,18.30
2023-03-17T14:31:07.716Z,18.00
2023-03-17T14:33:42.064Z,18.00
2023-03-17T14:36:14.774Z,18.00
2023-03-17T14:38:54.851Z,18.30
2023-03-17T14:41:28.794Z,18.50
2023-03-17T14:44:02.305Z,18.70
2023-03-17T14:46:40.514Z,18.90
2023-03-17T14:49:23.329Z,18.80
2023-03-17T14:51:53.904Z,18.80
2023-03-17T14:54:36.324Z,18.40
2023-03-17T14:57:15.910Z,18.20
2023-03-17T15:00:00.540Z,18.00
2023-03-17T15:02:39.990Z,18.30
2023-03-17T15:05:40.908Z,18.60
2023-03-17T15:08:41.483Z,18.40
2023-03-17T15:11:22.512Z,18.40
2023-03-17T15:14:33.780Z,18.50
2023-03-17T15:17:21.714Z,18.50
2023-03-17T15:20:00.022Z,18.30
2023-03-17T15:22:48.633Z,18.00
2023-03-17T15:25:42.581Z,17.90
2023-03-17T15:28:18.504Z,18.00
2023-03-17T15:31:11.957Z,18.10
2023-03-17T15:33:42.451Z,18.10
2023-03-17T15:36:31.762Z,18.10
2023-03-17T15:39:01.283Z,18.10
2023-03-17T15:41:29.383Z,18.00
2023-03-17T15:43:57.371Z,17.60
2023-03-17T15:46:33.736Z,17.70
2023-03-17T15:49:01.678Z,17.60
2023-03-17T15:51:29.305Z,17.40
2023-03-17T15:53:56.988Z,17.30
2023-03-17T15:56:24.731Z,17.20
2023-03-17T15:58:52.744Z,17.10
2023-03-17T16:01:21.427Z,17.00
2023-03-17T16:03:50.279Z,17.00
2023-03-17T16:06:24.284Z,17.00
2023-03-17T16:08:52.417Z,16.90
2023-03-17T16:11:28.577Z,16.80
2023-03-17T16:13:59.979Z,16.80
2023-03-17T16:16:40.034Z,16.70
2023-03-17T16:19:20.353Z,16.60
2023-03-17T16:21:49.584Z,16.70
2023-03-17T16:24:27.690Z,16.80
2023-03-17T16:26:55.501Z,16.70
2023-03-17T16:29:23.355Z,16.70
2023-03-17T16:31:52.261Z,16.70
2023-03-17T16:34:24.334Z,16.70
2023-03-17T16:36:52.321Z,16.60
2023-03-17T16:39:24.678Z,16.50
2023-03-17T16:41:53.620Z,16.40
2023-03-17T16:44:23.547Z,16.30
2023-03-17T16:46:51.584Z,16.20
2023-03-17T16:49:23.145Z,16.10
2023-03-17T16:51:51.261Z,16.00
2023-03-17T16:54:18.970Z,16.10
2023-03-17T16:56:47.154Z,16.00
2023-03-17T16:59:28.307Z,16.00
2023-03-17T17:01:56.101Z,15.80
2023-03-17T17:04:27.182Z,15.80
2023-03-17T17:06:56.617Z,15.70
2023-03-17T17:09:25.603Z,15.60
2023-03-17T17:11:53.281Z,15.50
2023-03-17T17:14:21.137Z,15.40
2023-03-17T17:16:49.113Z,15.30
2023-03-17T17:19:18.191Z,15.20
2023-03-17T17:21:46.316Z,15.30
2023-03-17T17:24:16.258Z,15.30
2023-03-17T17:26:44.034Z,15.10
2023-03-17T17:29:12.432Z,15.00
2023-03-17T17:31:41.139Z,14.90
2023-03-17T17:34:09.074Z,14.90
2023-03-17T17:36:37.283Z,14.70
2023-03-17T17:39:05.233Z,14.70
2023-03-17T17:41:34.811Z,14.50
2023-03-17T17:44:03.198Z,14.50
2023-03-17T17:46:31.473Z,14.30
2023-03-17T17:48:59.274Z,14.20
2023-03-17T17:51:28.804Z,14.10
2023-03-17T17:53:56.762Z,14.20
2023-03-17T17:56:26.102Z,14.50
2023-03-17T17:58:53.971Z,14.50
2023-03-17T18:01:22.816Z,14.50
2023-03-17T18:03:50.721Z,14.40
2023-03-17T18:06:18.635Z,14.40
2023-03-17T18:08:47.253Z,14.50
2023-03-17T18:11:15.030Z,14.30
2023-03-17T18:13:42.982Z,14.40
2023-03-17T18:16:19.849Z,14.70
2023-03-17T18:18:47.810Z,14.60
2023-03-17T18:21:16.183Z,14.50
2023-03-17T18:23:47.570Z,14.40
2023-03-17T18:26:18.594Z,14.30
2023-03-17T18:28:47.998Z,14.30
2023-03-17T18:31:50.213Z,14.10
2023-03-17T18:34:39.494Z,14.30
2023-03-17T18:37:07.836Z,14.10
2023-03-17T18:39:36.095Z,14.20
2023-03-17T18:42:04.500Z,14.20
2023-03-17T18:44:32.517Z,14.40
2023-03-17T18:47:00.702Z,14.40
2023-03-17T18:49:28.669Z,14.30
2023-03-17T18:51:59.241Z,14.30
2023-03-17T18:54:28.816Z,14.30
2023-03-17T18:56:57.781Z,14.20
2023-03-17T18:59:25.762Z,14.10
2023-03-17T19:01:54.376Z,14.10
2023-03-17T19:04:22.120Z,14.00
2023-03-17T19:06:49.981Z,14.10
2023-03-17T19:09:18.708Z,14.00
2023-03-17T19:11:47.087Z,13.90
2023-03-17T19:14:15.488Z,14.00
2023-03-17T19:16:43.303Z,14.10
2023-03-17T19:19:11.768Z,14.20
2023-03-17T19:21:39.716Z,14.10
2023-03-17T19:24:10.648Z,13.90
2023-03-17T19:26:39.838Z,13.90
2023-03-17T19:29:10.006Z,13.90
2023-03-17T19:31:41.589Z,14.00
2023-03-17T19:34:13.325Z,13.90
2023-03-17T19:36:46.664Z,13.80
2023-03-17T19:39:15.469Z,13.70
2023-03-17T19:41:43.801Z,13.50
2023-03-17T19:44:11.468Z,13.50
2023-03-17T19:46:39.387Z,13.50
2023-03-17T19:49:07.190Z,13.60
2023-03-17T19:51:34.933Z,13.40
2023-03-17T19:54:05.379Z,13.50
2023-03-17T19:56:33.911Z,13.50
2023-03-17T19:59:02.366Z,13.60
2023-03-17T20:01:32.146Z,13.80
2023-03-17T20:04:01.196Z,13.80
2023-03-17T20:06:29.720Z,13.80
2023-03-17T20:08:58.127Z,13.60
2023-03-17T20:11:25.930Z,13.40
2023-03-17T20:13:53.749Z,13.30
2023-03-17T20:16:22.460Z,13.20
2023-03-17T20:18:50.375Z,13.30
2023-03-17T20:21:18.358Z,13.30
2023-03-17T20:23:46.414Z,13.20
2023-03-17T20:26:14.424Z,13.00
2023-03-17T20:28:42.534Z,13.10
2023-03-17T20:31:10.989Z,13.00
2023-03-17T20:33:39.223Z,13.30
2023-03-17T20:36:08.272Z,13.30
2023-03-17T20:38:39.170Z,13.20
2023-03-17T20:41:15.108Z,13.30
2023-03-17T20:43:44.717Z,13.30
2023-03-17T20:46:25.169Z,13.30
2023-03-17T20:48:58.740Z,13.20
2023-03-17T20:51:28.557Z,13.20
2023-03-17T20:53:56.945Z,13.10
2023-03-17T20:56:26.915Z,13.10
2023-03-17T20:58:56.286Z,13.20
2023-03-17T21:01:26.855Z,13.30
2023-03-17T21:03:55.903Z,13.40
2023-03-17T21:06:26.131Z,13.40
2023-03-17T21:08:55.740Z,13.30
2023-03-17T21:11:23.678Z,13.30
2023-03-17T21:13:52.004Z,13.20
2023-03-17T21:16:26.696Z,13.20
2023-03-17T21:18:55.303Z,13.20
2023-03-17T21:21:25.289Z,13.20
2023-03-17T21:23:53.906Z,13.20
2023-03-17T21:26:22.183Z,13.10
2023-03-17T21:28:50.631Z,12.90
2023-03-17T21:31:19.277Z,12.90
2023-03-17T21:33:50.664Z,12.80
2023-03-17T21:36:21.088Z,12.90
2023-03-17T21:38:49.150Z,12.80
2023-03-17T21:41:33.425Z,12.80
2023-03-17T21:44:06.285Z,12.70
2023-03-17T21:46:34.533Z,12.70
2023-03-17T21:49:02.429Z,12.60
2023-03-17T21:51:31.355Z,12.60
2023-03-17T21:54:00.264Z,12.60
2023-03-17T21:56:30.070Z,12.60
2023-03-17T21:58:58.537Z,12.60
2023-03-17T22:01:27.678Z,12.60
2023-03-17T22:03:55.765Z,12.60
2023-03-17T22:06:25.025Z,12.50
2023-03-17T22:08:52.864Z,12.40
2023-03-17T22:11:21.303Z,12.40
2023-03-17T22:13:49.413Z,12.40
2023-03-17T22:16:18.703Z,12.40
2023-03-17T22:18:47.590Z,12.40
2023-03-17T22:21:15.614Z,12.40
2023-03-17T22:23:44.569Z,12.40
2023-03-17T22:26:21.107Z,12.50
2023-03-17T22:28:50.617Z,12.50
2023-03-17T22:31:29.633Z,12.50
2023-03-17T22:33:59.760Z,12.60
2023-03-17T22:36:30.167Z,12.60
2023-03-17T22:38:59.771Z,12.50
2023-03-17T22:41:30.973Z,12.50
2023-03-17T22:43:59.447Z,12.60
2023-03-17T22:46:27.631Z,12.70
2023-03-17T22:48:55.828Z,12.70
2023-03-17T22:51:27.006Z,12.70
2023-03-17T22:53:56.744Z,12.70
2023-03-17T22:56:26.610Z,12.70
2023-03-17T22:58:56.564Z,12.60
2023-03-17T23:01:25.899Z,12.50
2023-03-17T23:03:55.693Z,12.50
2023-03-17T23:06:24.791Z,12.40
2023-03-17T23:08:54.312Z,12.40
2023-03-17T23:11:27.060Z,12.30
2023-03-17T23:13:55.378Z,12.20
2023-03-17T23:16:23.676Z,12.20
2023-03-17T23:18:51.717Z,12.40
2023-03-17T23:21:36.048Z,12.40
2023-03-17T23:24:07.978Z,12.40
2023-03-17T23:26:37.201Z,12.30
2023-03-17T23:29:09.358Z,12.30
2023-03-17T23:31:39.670Z,12.40
2023-03-17T23:34:09.889Z,12.20
2023-03-17T23:36:40.259Z,12.30
2023-03-17T23:39:09.930Z,12.30
2023-03-17T23:41:38.056Z,12.50
2023-03-17T23:44:06.625Z,12.30
2023-03-17T23:46:34.755Z,12.20
2023-03-17T23:49:04.414Z,12.10
2023-03-17T23:51:32.350Z,12.10
2023-03-17T23:54:00.759Z,12.10
2023-03-17T23:56:28.637Z,12.10
2023-03-17T23:58:56.534Z,12.10
